createdAt,value
2018-06-15T00:03:17.111Z,88
2018-06-15T00:08:17.031Z,87.8
2018-06-15T00:13:17.294Z,88.4
2018-06-15T00:18:16.952Z,88.6
2018-06-15T00:23:17.142Z,88.7
2018-06-15T00:28:17.322Z,88.5
2018-06-15T00:33:17.234Z,88.3
2018-06-15T00:38:29.901Z,88.9
2018-06-15T00:43:29.762Z,89
2018-06-15T00:48:29.801Z,87.9
2018-06-15T00:53:29.838Z,89.4
2018-06-15T00:58:29.627Z,88.8
2018-06-15T01:03:29.629Z,88.3
2018-06-15T01:08:29.616Z,88.7
2018-06-15T01:13:31.546Z,88.9
2018-06-15T01:18:31.427Z,90.1
2018-06-15T01:23:43.980Z,89.6
2018-06-15T01:28:43.706Z,91.2
2018-06-15T01:33:43.949Z,90.2
2018-06-15T01:38:43.855Z,90.1
2018-06-15T01:43:43.933Z,88.9
2018-06-15T01:48:43.962Z,89.8
2018-06-15T01:53:43.856Z,88.6
2018-06-15T01:58:44.782Z,89.2
2018-06-15T02:03:44.474Z,89.5
2018-06-15T02:08:56.772Z,90.2
2018-06-15T02:13:56.614Z,88.8
2018-06-15T02:18:56.626Z,89
2018-06-15T02:23:56.512Z,91.4
2018-06-15T02:28:56.632Z,90.1
2018-06-15T02:33:56.637Z,89.7
2018-06-15T02:38:56.655Z,89.9
2018-06-15T02:43:56.527Z,89.3
2018-06-15T02:48:56.626Z,89.8
2018-06-15T02:54:11.317Z,89.9
2018-06-15T02:59:11.220Z,90.2
2018-06-15T03:04:11.139Z,89.7
2018-06-15T03:09:11.215Z,90.1
2018-06-15T03:14:11.237Z,90.5
2018-06-15T03:19:11.060Z,90.5
2018-06-15T03:24:11.223Z,90.7
2018-06-15T03:29:13.456Z,90.7
2018-06-15T03:34:13.320Z,90.5
2018-06-15T03:39:25.693Z,91.6
2018-06-15T03:44:25.465Z,92
2018-06-15T03:49:25.371Z,91
2018-06-15T03:54:25.434Z,91
2018-06-15T03:59:25.473Z,90.6
2018-06-15T04:04:25.837Z,91
2018-06-15T04:09:25.821Z,92.2
2018-06-15T04:14:28.038Z,92.6
2018-06-15T04:19:27.974Z,91.8
2018-06-15T04:24:40.469Z,91.1
2018-06-15T04:29:40.243Z,92.1
2018-06-15T04:34:40.030Z,91.2
2018-06-15T04:39:40.180Z,91.5
2018-06-15T04:44:40.058Z,90.4
2018-06-15T04:49:40.062Z,91.1
2018-06-15T04:54:40.178Z,90.9
2018-06-15T04:59:42.068Z,89.1
2018-06-15T05:04:41.988Z,88.8
2018-06-15T05:09:54.044Z,88.8
2018-06-15T05:14:53.809Z,89.2
2018-06-15T05:19:53.967Z,89
2018-06-15T05:24:53.995Z,89.1
2018-06-15T05:29:54.035Z,86.6
2018-06-15T05:34:53.957Z,85.7
2018-06-15T05:39:54.041Z,82.7
2018-06-15T05:44:53.774Z,80.8
2018-06-15T05:49:54.012Z,81.6
2018-06-15T05:55:05.607Z,81.2
2018-06-15T06:00:05.504Z,80.3
2018-06-15T06:05:05.540Z,78.5
2018-06-15T06:10:06.470Z,76.6
2018-06-15T06:15:05.489Z,73.5
2018-06-15T06:20:05.689Z,73.4
2018-06-15T06:25:05.368Z,69.8
2018-06-15T06:30:09.818Z,68.4
2018-06-15T06:35:09.546Z,67.4
2018-06-15T06:40:21.528Z,68.5
2018-06-15T06:45:21.342Z,66.7
2018-06-15T06:50:21.400Z,66.8
2018-06-15T06:55:21.464Z,66.9
2018-06-15T07:00:21.265Z,65
2018-06-15T07:05:21.265Z,62.7
2018-06-15T07:10:21.475Z,65
2018-06-15T07:15:26.217Z,63.1
2018-06-15T07:20:26.108Z,63.5
2018-06-15T07:25:38.460Z,61.8
2018-06-15T07:30:38.203Z,59.9
2018-06-15T07:35:38.188Z,61.5
2018-06-15T07:40:38.444Z,60.8
2018-06-15T07:45:38.362Z,60.4
2018-06-15T07:50:38.189Z,57.4
2018-06-15T07:55:38.322Z,60.2
2018-06-15T08:00:38.810Z,54
2018-06-15T08:05:38.712Z,56.1
2018-06-15T08:10:50.949Z,56.6
2018-06-15T08:15:51.048Z,56.6
2018-06-15T08:20:50.679Z,56.9
2018-06-15T08:25:50.911Z,56
2018-06-15T08:30:50.936Z,54.3
2018-06-15T08:35:50.715Z,54.8
2018-06-15T08:40:51.134Z,55.7
2018-06-15T08:45:56.200Z,51.8
2018-06-15T08:50:56.096Z,51.4
2018-06-15T08:56:09.450Z,49.8
2018-06-15T09:01:09.385Z,50
2018-06-15T09:06:09.313Z,48.7
2018-06-15T09:11:09.157Z,49.6
2018-06-15T09:16:09.381Z,50.2
2018-06-15T09:21:09.166Z,49.6
2018-06-15T09:26:09.362Z,46.9
2018-06-15T09:31:09.171Z,48.2
2018-06-15T09:36:09.310Z,50
2018-06-15T09:41:21.146Z,48
2018-06-15T09:46:21.165Z,49
2018-06-15T09:51:21.111Z,48.7
2018-06-15T09:56:21.113Z,45.5
2018-06-15T10:01:20.981Z,48.3
2018-06-15T10:06:20.867Z,45.3
2018-06-15T10:11:21.022Z,45.1
2018-06-15T10:16:21.118Z,45.5
2018-06-15T10:21:21.109Z,46.1
2018-06-15T10:26:33.188Z,46.5
2018-06-15T10:31:33.030Z,44.4
2018-06-15T10:36:33.089Z,44.6
2018-06-15T10:41:32.904Z,45
2018-06-15T10:46:33.156Z,45.2
2018-06-15T10:51:33.077Z,46.8
2018-06-15T10:56:33.122Z,45.5
2018-06-15T11:01:33.221Z,45
2018-06-15T11:06:33.164Z,44.2
2018-06-15T11:11:44.976Z,43.6
2018-06-15T11:16:44.932Z,44.6
2018-06-15T11:21:44.982Z,43.7
2018-06-15T11:26:44.885Z,42.1
2018-06-15T11:31:44.938Z,43.5
2018-06-15T11:36:44.839Z,41.5
2018-06-15T11:41:44.918Z,42.5
2018-06-15T11:46:45.700Z,42.5
2018-06-15T11:51:45.566Z,39.7
2018-06-15T11:56:57.708Z,42
2018-06-15T12:01:57.626Z,42.4
2018-06-15T12:06:57.527Z,42
2018-06-15T12:11:57.417Z,44.1
2018-06-15T12:16:57.648Z,44.5
2018-06-15T12:21:57.650Z,43.9
2018-06-15T12:26:57.533Z,44.1
2018-06-15T12:31:58.348Z,43.8
2018-06-15T12:36:58.275Z,43.5
2018-06-15T12:42:10.309Z,43.8
2018-06-15T12:47:10.216Z,41.9
2018-06-15T12:52:10.239Z,42
2018-06-15T12:57:10.518Z,44
2018-06-15T13:02:10.198Z,45.1
2018-06-15T13:07:10.235Z,41.1
2018-06-15T13:12:10.275Z,40.2
2018-06-15T13:17:10.229Z,40.8
2018-06-15T13:22:10.210Z,40.6
2018-06-15T13:27:22.636Z,40.1
2018-06-15T13:32:22.431Z,42.7
2018-06-15T13:37:22.356Z,41.7
2018-06-15T13:42:22.385Z,44.4
2018-06-15T13:47:22.398Z,40.9
2018-06-15T13:52:22.510Z,42.2
2018-06-15T13:57:22.568Z,41.2
2018-06-15T14:02:22.447Z,40.5
2018-06-15T14:07:22.629Z,40.3
2018-06-15T14:12:34.579Z,41.4
2018-06-15T14:17:34.344Z,41.5
2018-06-15T14:22:34.516Z,38.2
2018-06-15T14:27:34.316Z,40
2018-06-15T14:32:34.317Z,41.5
2018-06-15T14:37:34.338Z,40.3
2018-06-15T14:42:34.570Z,40.2
2018-06-15T14:47:34.348Z,41.4
2018-06-15T14:52:34.338Z,41.3
2018-06-15T14:57:34.538Z,38.9
2018-06-15T15:02:34.320Z,40.5
2018-06-15T15:07:34.336Z,38.8
2018-06-15T15:12:34.347Z,40.2
2018-06-15T15:17:34.355Z,40.6
2018-06-15T15:22:45.996Z,40.1
2018-06-15T15:27:45.722Z,40.1
2018-06-15T15:32:45.729Z,39.7
2018-06-15T15:37:46.174Z,38.4
2018-06-15T15:42:45.739Z,40
2018-06-15T15:47:49.064Z,40.5
2018-06-15T15:52:45.867Z,40.9
2018-06-15T15:57:47.998Z,41.3
2018-06-15T16:02:47.780Z,41.3
2018-06-15T16:07:59.632Z,40.4
2018-06-15T16:12:59.238Z,40.6
2018-06-15T16:17:59.223Z,40.8
2018-06-15T16:22:59.372Z,39.8
2018-06-15T16:27:59.270Z,41.3
2018-06-15T16:32:59.259Z,40.3
2018-06-15T16:37:59.508Z,40.8
2018-06-15T16:42:59.438Z,41.4
2018-06-15T16:47:59.550Z,41.6
2018-06-15T16:53:11.778Z,41.4
2018-06-15T16:58:11.763Z,41.4
2018-06-15T17:03:11.519Z,41
2018-06-15T17:08:11.699Z,41.1
2018-06-15T17:13:11.783Z,41.7
2018-06-15T17:18:11.516Z,41.3
2018-06-15T17:23:11.547Z,42.9
2018-06-15T17:28:13.912Z,42.5
2018-06-15T17:33:13.775Z,43.1
2018-06-15T17:38:26.869Z,43
2018-06-15T17:43:26.769Z,44.1
2018-06-15T17:48:26.815Z,46
2018-06-15T17:53:26.625Z,45.5
2018-06-15T17:58:26.610Z,45.3
2018-06-15T18:03:26.624Z,45.1
2018-06-15T18:08:26.666Z,44.6
2018-06-15T18:13:29.011Z,45.9
2018-06-15T18:18:28.247Z,47.4
2018-06-15T18:23:40.456Z,48
2018-06-15T18:28:40.435Z,49.2
2018-06-15T18:33:40.312Z,50.2
2018-06-15T18:38:40.370Z,50.4
2018-06-15T18:43:40.291Z,52.5
2018-06-15T18:48:41.582Z,53.9
2018-06-15T18:53:40.306Z,54.6
2018-06-15T18:58:42.520Z,54.9
2018-06-15T19:03:45.229Z,57.6
2018-06-15T19:08:54.822Z,57.9
2018-06-15T19:13:54.740Z,62.6
2018-06-15T19:18:54.542Z,64.5
2018-06-15T19:23:54.685Z,60.7
2018-06-15T19:28:55.127Z,61.5
2018-06-15T19:33:55.203Z,62.9
2018-06-15T19:38:54.618Z,62.4
2018-06-15T19:43:57.848Z,63.1
2018-06-15T19:48:57.975Z,64.8
2018-06-15T19:54:09.790Z,65.5
2018-06-15T19:59:09.668Z,64.5
2018-06-15T20:04:09.918Z,65.4
2018-06-15T20:09:09.575Z,65.1
2018-06-15T20:14:09.487Z,65.8
2018-06-15T20:19:09.616Z,67
2018-06-15T20:24:09.457Z,66.6
2018-06-15T20:29:09.577Z,67.3
2018-06-15T20:34:09.579Z,67.6
2018-06-15T20:39:22.469Z,68.6
2018-06-15T20:44:23.357Z,68.3
2018-06-15T20:49:22.052Z,68.4
2018-06-15T20:54:22.363Z,69.9
2018-06-15T20:59:22.398Z,70.6
2018-06-15T21:04:22.368Z,71.1
2018-06-15T21:09:22.363Z,72.9
2018-06-15T21:14:22.917Z,71.8
2018-06-15T21:19:24.001Z,71.3
2018-06-15T21:24:34.696Z,71.3
2018-06-15T21:29:34.416Z,70.8
2018-06-15T21:34:34.565Z,70.4
2018-06-15T21:39:34.445Z,70.6
2018-06-15T21:44:34.435Z,71.9
2018-06-15T21:49:34.440Z,72.7
2018-06-15T21:54:34.438Z,71.8
2018-06-15T21:59:35.265Z,72.5
2018-06-15T22:04:34.984Z,72.3
2018-06-15T22:09:46.893Z,74.4
2018-06-15T22:14:46.636Z,73.3
2018-06-15T22:19:46.619Z,73.8
2018-06-15T22:24:46.619Z,74.2
2018-06-15T22:29:46.636Z,74.6
2018-06-15T22:34:46.581Z,74.2
2018-06-15T22:39:46.604Z,74.1
2018-06-15T22:44:47.596Z,75.9
2018-06-15T22:49:47.337Z,75.3
2018-06-15T22:54:59.307Z,75.4
2018-06-15T22:59:59.228Z,76.1
2018-06-15T23:04:59.054Z,75.5
2018-06-15T23:09:59.042Z,76.3
2018-06-15T23:14:59.442Z,76.1
2018-06-15T23:19:59.484Z,76.6
2018-06-15T23:24:59.395Z,75.8
2018-06-15T23:29:59.368Z,76.3
2018-06-15T23:34:59.364Z,75.2
2018-06-15T23:40:10.683Z,75.3
2018-06-15T23:45:10.600Z,76.3
2018-06-15T23:50:11.694Z,75.6
2018-06-15T23:55:10.576Z,76.6
